sensor_id;sensor_type;location;lat;lon;timestamp;pressure;altitude;pressure_sealevel;temperature;humidity
26978;BME280;56314;48.088;11.642;2022-08-18T00:01:23;95108.03;;;20.76;77.65
26978;BME280;56314;48.088;11.642;2022-08-18T00:03:49;95114.84;;;20.79;76.94
26978;BME280;56314;48.088;11.642;2022-08-18T00:06:18;95106.38;;;20.75;76.87
26978;BME280;56314;48.088;11.642;2022-08-18T00:08:43;95098.94;;;20.71;76.82
26978;BME280;56314;48.088;11.642;2022-08-18T00:11:09;95100.22;;;20.75;77.07
26978;BME280;56314;48.088;11.642;2022-08-18T00:13:35;95099.84;;;20.78;77.35
26978;BME280;56314;48.088;11.642;2022-08-18T00:16:00;95095.16;;;20.80;76.88
26978;BME280;56314;48.088;11.642;2022-08-18T00:18:26;95089.00;;;20.80;76.34
26978;BME280;56314;48.088;11.642;2022-08-18T00:20:51;95086.31;;;20.80;76.04
26978;BME280;56314;48.088;11.642;2022-08-18T00:23:17;95086.41;;;20.86;76.68
26978;BME280;56314;48.088;11.642;2022-08-18T00:25:42;95092.75;;;20.85;75.65
26978;BME280;56314;48.088;11.642;2022-08-18T00:28:09;95089.44;;;20.83;75.66
26978;BME280;56314;48.088;11.642;2022-08-18T00:30:35;95091.66;;;20.80;75.94
26978;BME280;56314;48.088;11.642;2022-08-18T00:33:01;95100.84;;;20.77;75.56
26978;BME280;56314;48.088;11.642;2022-08-18T00:35:37;95108.59;;;20.72;75.31
26978;BME280;56314;48.088;11.642;2022-08-18T00:38:05;95119.19;;;20.65;75.90
26978;BME280;56314;48.088;11.642;2022-08-18T00:40:38;95122.50;;;20.67;75.63
26978;BME280;56314;48.088;11.642;2022-08-18T00:43:06;95104.81;;;20.66;75.81
26978;BME280;56314;48.088;11.642;2022-08-18T00:45:41;95093.06;;;20.60;75.74
26978;BME280;56314;48.088;11.642;2022-08-18T00:48:09;95098.66;;;20.66;75.92
26978;BME280;56314;48.088;11.642;2022-08-18T00:55:40;95095.75;;;20.60;76.08
26978;BME280;56314;48.088;11.642;2022-08-18T00:58:12;95087.91;;;20.59;75.59
26978;BME280;56314;48.088;11.642;2022-08-18T01:00:41;95093.25;;;20.59;76.74
26978;BME280;56314;48.088;11.642;2022-08-18T01:03:12;95104.84;;;20.51;75.96
26978;BME280;56314;48.088;11.642;2022-08-18T01:05:42;95129.53;;;20.38;76.49
26978;BME280;56314;48.088;11.642;2022-08-18T01:08:12;95126.50;;;20.41;76.71
26978;BME280;56314;48.088;11.642;2022-08-18T01:10:41;95128.59;;;20.46;76.94
26978;BME280;56314;48.088;11.642;2022-08-18T01:13:07;95133.09;;;20.45;76.64
26978;BME280;56314;48.088;11.642;2022-08-18T01:15:33;95117.22;;;20.37;76.50
26978;BME280;56314;48.088;11.642;2022-08-18T01:18:05;95115.56;;;20.36;76.56
26978;BME280;56314;48.088;11.642;2022-08-18T01:21:04;95117.41;;;20.36;76.75
26978;BME280;56314;48.088;11.642;2022-08-18T01:23:52;95126.13;;;20.29;76.87
26978;BME280;56314;48.088;11.642;2022-08-18T01:26:19;95132.31;;;20.30;76.53
26978;BME280;56314;48.088;11.642;2022-08-18T01:28:46;95122.56;;;20.22;76.90
26978;BME280;56314;48.088;11.642;2022-08-18T01:31:32;95115.28;;;20.16;77.17
26978;BME280;56314;48.088;11.642;2022-08-18T01:34:02;95111.53;;;20.10;77.78
26978;BME280;56314;48.088;11.642;2022-08-18T01:36:29;95122.84;;;20.12;78.05
26978;BME280;56314;48.088;11.642;2022-08-18T01:38:55;95117.50;;;20.12;77.90
26978;BME280;56314;48.088;11.642;2022-08-18T01:41:21;95111.63;;;20.02;78.33
26978;BME280;56314;48.088;11.642;2022-08-18T01:43:48;95110.97;;;20.00;78.53
26978;BME280;56314;48.088;11.642;2022-08-18T01:46:17;95101.72;;;19.96;78.31
26978;BME280;56314;48.088;11.642;2022-08-18T01:48:46;95100.88;;;19.95;78.75
26978;BME280;56314;48.088;11.642;2022-08-18T01:51:14;95111.09;;;19.92;78.81
26978;BME280;56314;48.088;11.642;2022-08-18T01:53:40;95102.09;;;19.93;79.45
26978;BME280;56314;48.088;11.642;2022-08-18T01:56:06;95094.00;;;19.86;78.91
26978;BME280;56314;48.088;11.642;2022-08-18T01:58:32;95090.19;;;19.80;78.74
26978;BME280;56314;48.088;11.642;2022-08-18T02:01:00;95099.31;;;19.86;79.07
26978;BME280;56314;48.088;11.642;2022-08-18T02:03:34;95089.34;;;19.80;78.85
26978;BME280;56314;48.088;11.642;2022-08-18T02:06:02;95095.97;;;19.69;78.74
26978;BME280;56314;48.088;11.642;2022-08-18T02:11:49;95090.00;;;19.67;79.39
26978;BME280;56314;48.088;11.642;2022-08-18T02:14:14;95090.47;;;19.56;79.50
26978;BME280;56314;48.088;11.642;2022-08-18T02:16:39;95086.69;;;19.50;79.76
26978;BME280;56314;48.088;11.642;2022-08-18T02:19:05;95082.56;;;19.47;80.59
26978;BME280;56314;48.088;11.642;2022-08-18T02:21:30;95081.16;;;19.51;80.17
26978;BME280;56314;48.088;11.642;2022-08-18T02:23:56;95090.16;;;19.50;80.19
26978;BME280;56314;48.088;11.642;2022-08-18T02:26:21;95100.19;;;19.48;79.60
26978;BME280;56314;48.088;11.642;2022-08-18T02:28:47;95098.69;;;19.46;80.66
26978;BME280;56314;48.088;11.642;2022-08-18T02:31:15;95092.00;;;19.35;80.72
26978;BME280;56314;48.088;11.642;2022-08-18T02:33:41;95084.47;;;19.38;81.13
26978;BME280;56314;48.088;11.642;2022-08-18T02:36:07;95086.94;;;19.40;80.78
26978;BME280;56314;48.088;11.642;2022-08-18T02:38:33;95091.50;;;19.31;80.75
26978;BME280;56314;48.088;11.642;2022-08-18T02:41:01;95091.50;;;19.31;80.95
26978;BME280;56314;48.088;11.642;2022-08-18T02:43:27;95084.91;;;19.27;81.42
26978;BME280;56314;48.088;11.642;2022-08-18T02:45:53;95086.56;;;19.28;81.10
26978;BME280;56314;48.088;11.642;2022-08-18T02:48:19;95079.94;;;19.24;81.21
26978;BME280;56314;48.088;11.642;2022-08-18T02:51:05;95060.75;;;19.29;80.92
26978;BME280;56314;48.088;11.642;2022-08-18T02:53:31;95059.38;;;19.18;80.45
26978;BME280;56314;48.088;11.642;2022-08-18T02:56:12;95059.78;;;19.06;81.17
26978;BME280;56314;48.088;11.642;2022-08-18T02:58:50;95055.94;;;19.09;81.68
26978;BME280;56314;48.088;11.642;2022-08-18T03:01:21;95058.97;;;19.06;81.21
26978;BME280;56314;48.088;11.642;2022-08-18T03:03:48;95071.34;;;18.99;81.66
26978;BME280;56314;48.088;11.642;2022-08-18T03:06:15;95071.34;;;18.99;82.02
26978;BME280;56314;48.088;11.642;2022-08-18T03:08:41;95080.59;;;19.03;82.20
26978;BME280;56314;48.088;11.642;2022-08-18T03:11:07;95070.97;;;19.02;81.82
26978;BME280;56314;48.088;11.642;2022-08-18T03:13:32;95077.47;;;18.99;81.33
26978;BME280;56314;48.088;11.642;2022-08-18T03:15:57;95074.00;;;18.90;81.38
26978;BME280;56314;48.088;11.642;2022-08-18T03:18:23;95073.19;;;18.90;82.37
26978;BME280;56314;48.088;11.642;2022-08-18T03:20:49;95069.69;;;18.89;81.76
26978;BME280;56314;48.088;11.642;2022-08-18T03:23:15;95065.63;;;18.79;81.95
26978;BME280;56314;48.088;11.642;2022-08-18T03:25:48;95064.63;;;18.80;82.41
26978;BME280;56314;48.088;11.642;2022-08-18T03:28:15;95055.34;;;18.75;82.72
26978;BME280;56314;48.088;11.642;2022-08-18T03:30:41;95058.47;;;18.79;83.07
26978;BME280;56314;48.088;11.642;2022-08-18T03:33:07;95067.34;;;18.71;82.93
26978;BME280;56314;48.088;11.642;2022-08-18T03:35:34;95061.75;;;18.66;82.94
26978;BME280;56314;48.088;11.642;2022-08-18T03:38:01;95059.09;;;18.66;83.27
26978;BME280;56314;48.088;11.642;2022-08-18T03:40:27;95059.25;;;18.65;82.73
26978;BME280;56314;48.088;11.642;2022-08-18T03:42:52;95062.56;;;18.67;82.73
26978;BME280;56314;48.088;11.642;2022-08-18T03:45:18;95063.75;;;18.64;83.63
26978;BME280;56314;48.088;11.642;2022-08-18T03:47:43;95063.22;;;18.69;82.51
26978;BME280;56314;48.088;11.642;2022-08-18T03:50:10;95061.09;;;18.64;83.10
26978;BME280;56314;48.088;11.642;2022-08-18T03:52:36;95065.94;;;18.60;82.19
26978;BME280;56314;48.088;11.642;2022-08-18T03:55:03;95056.25;;;18.44;83.00
26978;BME280;56314;48.088;11.642;2022-08-18T03:57:29;95052.69;;;18.52;83.47
26978;BME280;56314;48.088;11.642;2022-08-18T03:59:56;95045.34;;;18.54;83.50
26978;BME280;56314;48.088;11.642;2022-08-18T04:02:22;95049.19;;;18.52;83.28
26978;BME280;56314;48.088;11.642;2022-08-18T04:04:47;95053.19;;;18.48;83.77
26978;BME280;56314;48.088;11.642;2022-08-18T04:07:13;95052.72;;;18.44;84.31
26978;BME280;56314;48.088;11.642;2022-08-18T04:09:42;95056.94;;;18.38;83.94
26978;BME280;56314;48.088;11.642;2022-08-18T04:12:10;95061.44;;;18.38;84.41
26978;BME280;56314;48.088;11.642;2022-08-18T04:14:38;95056.44;;;18.35;84.34
26978;BME280;56314;48.088;11.642;2022-08-18T04:17:04;95041.31;;;18.35;84.47
26978;BME280;56314;48.088;11.642;2022-08-18T04:19:31;95034.19;;;18.36;83.88
26978;BME280;56314;48.088;11.642;2022-08-18T04:21:59;95031.22;;;18.30;84.09
26978;BME280;56314;48.088;11.642;2022-08-18T04:24:26;95025.63;;;18.17;84.95
26978;BME280;56314;48.088;11.642;2022-08-18T04:26:54;95019.38;;;18.10;85.55
26978;BME280;56314;48.088;11.642;2022-08-18T04:29:20;95012.75;;;18.06;85.88
26978;BME280;56314;48.088;11.642;2022-08-18T04:31:46;95021.72;;;18.05;86.39
26978;BME280;56314;48.088;11.642;2022-08-18T04:34:12;95007.81;;;18.03;86.20
26978;BME280;56314;48.088;11.642;2022-08-18T04:36:39;95012.28;;;18.02;86.05
26978;BME280;56314;48.088;11.642;2022-08-18T04:39:07;95014.66;;;17.97;86.38
26978;BME280;56314;48.088;11.642;2022-08-18T04:41:34;95020.41;;;17.92;86.87
26978;BME280;56314;48.088;11.642;2022-08-18T04:44:02;95019.25;;;18.03;86.55
26978;BME280;56314;48.088;11.642;2022-08-18T04:46:29;95013.41;;;18.08;85.96
26978;BME280;56314;48.088;11.642;2022-08-18T04:48:57;95015.41;;;18.06;86.45
26978;BME280;56314;48.088;11.642;2022-08-18T04:51:24;95024.03;;;18.08;86.31
26978;BME280;56314;48.088;11.642;2022-08-18T04:53:50;95024.69;;;18.10;86.61
26978;BME280;56314;48.088;11.642;2022-08-18T04:59:23;95039.06;;;18.24;85.78
26978;BME280;56314;48.088;11.642;2022-08-18T05:01:44;95044.09;;;18.10;86.15
26978;BME280;56314;48.088;11.642;2022-08-18T05:04:12;95048.41;;;18.20;86.27
26978;BME280;56314;48.088;11.642;2022-08-18T05:06:41;95048.03;;;18.23;86.37
26978;BME280;56314;48.088;11.642;2022-08-18T05:09:08;95054.31;;;18.30;86.23
26978;BME280;56314;48.088;11.642;2022-08-18T05:11:34;95059.75;;;18.37;86.11
26978;BME280;56314;48.088;11.642;2022-08-18T05:14:06;95074.00;;;18.44;85.58
26978;BME280;56314;48.088;11.642;2022-08-18T05:16:33;95073.47;;;18.49;85.01
26978;BME280;56314;48.088;11.642;2022-08-18T05:19:05;95071.31;;;18.52;84.56
26978;BME280;56314;48.088;11.642;2022-08-18T05:21:31;95079.22;;;18.60;84.29
26978;BME280;56314;48.088;11.642;2022-08-18T05:23:58;95079.63;;;18.72;82.78
26978;BME280;56314;48.088;11.642;2022-08-18T05:26:25;95067.56;;;18.85;81.65
26978;BME280;56314;48.088;11.642;2022-08-18T05:28:52;95079.13;;;19.00;80.09
26978;BME280;56314;48.088;11.642;2022-08-18T05:31:20;95067.72;;;19.15;80.29
26978;BME280;56314;48.088;11.642;2022-08-18T05:33:47;95077.19;;;19.32;80.51
26978;BME280;56314;48.088;11.642;2022-08-18T05:41:40;95058.88;;;20.12;76.76
26978;BME280;56314;48.088;11.642;2022-08-18T05:44:12;95079.16;;;20.43;73.36
26978;BME280;56314;48.088;11.642;2022-08-18T05:46:58;95081.69;;;20.52;73.29
26978;BME280;56314;48.088;11.642;2022-08-18T05:49:26;95079.47;;;20.55;72.61
26978;BME280;56314;48.088;11.642;2022-08-18T05:52:02;95095.41;;;20.70;72.74
26978;BME280;56314;48.088;11.642;2022-08-18T05:54:38;95092.09;;;20.83;71.44
26978;BME280;56314;48.088;11.642;2022-08-18T05:57:24;95102.72;;;20.76;72.20
26978;BME280;56314;48.088;11.642;2022-08-18T05:59:52;95104.22;;;20.86;72.01
26978;BME280;56314;48.088;11.642;2022-08-18T06:05:13;95079.72;;;20.75;71.41
26978;BME280;56314;48.088;11.642;2022-08-18T06:07:43;95081.38;;;20.76;72.12
26978;BME280;56314;48.088;11.642;2022-08-18T06:10:11;95080.34;;;20.78;71.93
26978;BME280;56314;48.088;11.642;2022-08-18T06:12:45;95092.84;;;20.77;72.27
26978;BME280;56314;48.088;11.642;2022-08-18T06:17:50;95105.69;;;20.88;72.81
26978;BME280;56314;48.088;11.642;2022-08-18T06:23:07;95109.06;;;20.75;71.97
26978;BME280;56314;48.088;11.642;2022-08-18T06:28:22;95100.88;;;20.62;73.74
26978;BME280;56314;48.088;11.642;2022-08-18T06:30:58;95102.34;;;20.65;72.97
26978;BME280;56314;48.088;11.642;2022-08-18T06:39:28;95069.06;;;20.60;73.04
26978;BME280;56314;48.088;11.642;2022-08-18T06:41:55;95069.75;;;20.69;73.20
26978;BME280;56314;48.088;11.642;2022-08-18T06:44:41;95072.88;;;20.73;73.29
26978;BME280;56314;48.088;11.642;2022-08-18T06:47:19;95074.44;;;20.82;73.72
26978;BME280;56314;48.088;11.642;2022-08-18T06:50:21;95068.31;;;20.88;72.65
26978;BME280;56314;48.088;11.642;2022-08-18T06:55:38;95054.88;;;20.97;70.80
26978;BME280;56314;48.088;11.642;2022-08-18T06:58:19;95031.09;;;21.02;70.68
26978;BME280;56314;48.088;11.642;2022-08-18T07:03:22;95035.63;;;21.30;71.46
26978;BME280;56314;48.088;11.642;2022-08-18T07:06:00;95044.59;;;21.50;71.06
26978;BME280;56314;48.088;11.642;2022-08-18T07:10:52;95051.19;;;21.83;68.18
26978;BME280;56314;48.088;11.642;2022-08-18T07:13:22;95054.75;;;21.97;67.27
26978;BME280;56314;48.088;11.642;2022-08-18T07:15:51;95048.38;;;21.98;67.49
26978;BME280;56314;48.088;11.642;2022-08-18T07:18:23;95052.56;;;22.14;66.64
26978;BME280;56314;48.088;11.642;2022-08-18T07:20:52;95044.41;;;22.22;65.77
26978;BME280;56314;48.088;11.642;2022-08-18T07:26:16;95056.31;;;22.26;64.89
26978;BME280;56314;48.088;11.642;2022-08-18T07:28:47;95052.94;;;22.46;65.36
26978;BME280;56314;48.088;11.642;2022-08-18T07:31:21;95058.94;;;22.62;63.58
26978;BME280;56314;48.088;11.642;2022-08-18T07:34:14;95062.91;;;22.93;62.83
26978;BME280;56314;48.088;11.642;2022-08-18T07:36:49;95054.88;;;23.66;59.90
26978;BME280;56314;48.088;11.642;2022-08-18T07:39:29;95037.06;;;24.12;57.09
26978;BME280;56314;48.088;11.642;2022-08-18T07:42:08;95040.75;;;24.25;57.65
26978;BME280;56314;48.088;11.642;2022-08-18T07:44:53;95031.53;;;24.53;56.41
26978;BME280;56314;48.088;11.642;2022-08-18T07:49:55;95032.41;;;24.79;55.84
26978;BME280;56314;48.088;11.642;2022-08-18T07:52:37;95029.97;;;25.02;54.45
26978;BME280;56314;48.088;11.642;2022-08-18T08:00:33;95039.31;;;25.00;54.40
26978;BME280;56314;48.088;11.642;2022-08-18T08:11:04;95027.09;;;25.29;55.12
26978;BME280;56314;48.088;11.642;2022-08-18T08:13:41;95037.69;;;25.49;54.80
26978;BME280;56314;48.088;11.642;2022-08-18T08:16:35;95035.44;;;26.27;52.12
26978;BME280;56314;48.088;11.642;2022-08-18T08:21:30;95015.22;;;26.86;49.17
26978;BME280;56314;48.088;11.642;2022-08-18T08:27:18;95028.09;;;26.84;48.91
26978;BME280;56314;48.088;11.642;2022-08-18T08:29:57;95036.44;;;26.94;49.32
26978;BME280;56314;48.088;11.642;2022-08-18T08:32:32;95022.19;;;27.17;47.83
26978;BME280;56314;48.088;11.642;2022-08-18T08:40:26;95017.44;;;26.58;49.69
26978;BME280;56314;48.088;11.642;2022-08-18T08:43:00;95012.81;;;26.78;48.54
26978;BME280;56314;48.088;11.642;2022-08-18T08:45:41;95001.44;;;27.06;49.11
26978;BME280;56314;48.088;11.642;2022-08-18T08:48:13;94997.84;;;27.36;47.10
26978;BME280;56314;48.088;11.642;2022-08-18T08:50:52;95007.44;;;27.32;48.48
26978;BME280;56314;48.088;11.642;2022-08-18T08:53:24;94997.41;;;27.63;47.65
26978;BME280;56314;48.088;11.642;2022-08-18T08:55:58;95005.66;;;28.79;43.89
26978;BME280;56314;48.088;11.642;2022-08-18T09:00:59;94981.94;;;30.77;38.37
26978;BME280;56314;48.088;11.642;2022-08-18T09:20:15;94982.38;;;33.09;34.04
26978;BME280;56314;48.088;11.642;2022-08-18T09:25:29;94983.91;;;33.98;31.53
26978;BME280;56314;48.088;11.642;2022-08-18T09:38:51;94954.28;;;34.97;28.76
26978;BME280;56314;48.088;11.642;2022-08-18T09:41:45;94968.31;;;35.20;28.40
26978;BME280;56314;48.088;11.642;2022-08-18T09:44:13;94967.53;;;35.14;27.93
26978;BME280;56314;48.088;11.642;2022-08-18T09:47:00;94978.44;;;34.74;29.12
26978;BME280;56314;48.088;11.642;2022-08-18T09:51:56;94970.19;;;34.84;28.73
26978;BME280;56314;48.088;11.642;2022-08-18T09:54:23;94965.16;;;35.02;28.61
26978;BME280;56314;48.088;11.642;2022-08-18T10:02:02;94980.38;;;35.43;28.07
26978;BME280;56314;48.088;11.642;2022-08-18T10:04:38;94986.63;;;35.14;28.73
26978;BME280;56314;48.088;11.642;2022-08-18T10:07:35;94976.88;;;34.58;29.15
26978;BME280;56314;48.088;11.642;2022-08-18T10:15:39;94972.44;;;34.12;30.94
26978;BME280;56314;48.088;11.642;2022-08-18T10:23:58;95008.47;;;32.95;31.03
26978;BME280;56314;48.088;11.642;2022-08-18T10:31:31;95014.28;;;30.89;35.96
26978;BME280;56314;48.088;11.642;2022-08-18T10:37:03;95010.66;;;30.06;36.96
26978;BME280;56314;48.088;11.642;2022-08-18T10:44:51;94983.03;;;31.84;34.06
26978;BME280;56314;48.088;11.642;2022-08-18T10:47:28;94977.41;;;31.53;33.80
26978;BME280;56314;48.088;11.642;2022-08-18T10:49:54;94973.78;;;31.05;35.67
26978;BME280;56314;48.088;11.642;2022-08-18T10:52:57;94966.56;;;31.58;35.06
26978;BME280;56314;48.088;11.642;2022-08-18T10:56:00;94960.41;;;32.21;33.45
26978;BME280;56314;48.088;11.642;2022-08-18T11:06:25;94941.56;;;33.09;32.24
26978;BME280;56314;48.088;11.642;2022-08-18T11:09:00;94947.56;;;33.22;31.18
26978;BME280;56314;48.088;11.642;2022-08-18T11:11:37;94951.50;;;32.36;32.13
26978;BME280;56314;48.088;11.642;2022-08-18T11:19:22;94931.09;;;31.22;34.46
26978;BME280;56314;48.088;11.642;2022-08-18T11:21:51;94946.09;;;30.70;35.19
26978;BME280;56314;48.088;11.642;2022-08-18T11:24:23;94939.00;;;30.41;36.28
26978;BME280;56314;48.088;11.642;2022-08-18T11:27:02;94927.91;;;30.65;35.36
26978;BME280;56314;48.088;11.642;2022-08-18T11:29:31;94921.88;;;30.31;36.59
26978;BME280;56314;48.088;11.642;2022-08-18T11:32:36;94921.63;;;30.60;36.43
26978;BME280;56314;48.088;11.642;2022-08-18T11:38:04;94911.13;;;30.41;35.89
26978;BME280;56314;48.088;11.642;2022-08-18T11:40:43;94902.25;;;30.51;36.60
26978;BME280;56314;48.088;11.642;2022-08-18T11:43:13;94898.91;;;30.11;36.99
26978;BME280;56314;48.088;11.642;2022-08-18T11:56:13;94854.69;;;30.33;37.18
26978;BME280;56314;48.088;11.642;2022-08-18T11:58:48;94836.16;;;30.19;37.41
26978;BME280;56314;48.088;11.642;2022-08-18T12:01:30;94821.56;;;30.20;37.67
26978;BME280;56314;48.088;11.642;2022-08-18T12:06:31;94812.63;;;30.20;37.47
26978;BME280;56314;48.088;11.642;2022-08-18T12:09:04;94819.59;;;30.10;37.85
26978;BME280;56314;48.088;11.642;2022-08-18T12:11:37;94825.75;;;30.33;37.43
26978;BME280;56314;48.088;11.642;2022-08-18T12:14:19;94843.09;;;30.65;37.65
26978;BME280;56314;48.088;11.642;2022-08-18T12:16:46;94848.16;;;30.94;37.69
26978;BME280;56314;48.088;11.642;2022-08-18T12:19:13;94845.28;;;31.11;36.44
26978;BME280;56314;48.088;11.642;2022-08-18T12:21:44;94851.25;;;31.08;36.33
26978;BME280;56314;48.088;11.642;2022-08-18T12:24:36;94847.38;;;30.98;35.88
26978;BME280;56314;48.088;11.642;2022-08-18T12:27:02;94845.59;;;30.71;35.58
26978;BME280;56314;48.088;11.642;2022-08-18T12:29:28;94840.38;;;30.37;37.61
26978;BME280;56314;48.088;11.642;2022-08-18T12:31:54;94846.97;;;30.19;37.68
26978;BME280;56314;48.088;11.642;2022-08-18T12:34:22;94840.56;;;29.98;37.86
26978;BME280;56314;48.088;11.642;2022-08-18T12:36:54;94830.13;;;29.85;38.71
26978;BME280;56314;48.088;11.642;2022-08-18T12:39:20;94838.44;;;29.56;38.83
26978;BME280;56314;48.088;11.642;2022-08-18T12:41:46;94841.97;;;29.56;38.82
26978;BME280;56314;48.088;11.642;2022-08-18T12:44:11;94838.59;;;29.27;38.40
26978;BME280;56314;48.088;11.642;2022-08-18T12:46:37;94847.81;;;29.09;39.89
26978;BME280;56314;48.088;11.642;2022-08-18T12:49:04;94852.88;;;29.22;39.34
26978;BME280;56314;48.088;11.642;2022-08-18T12:51:30;94857.44;;;29.22;40.08
26978;BME280;56314;48.088;11.642;2022-08-18T12:53:55;94862.28;;;29.19;39.54
26978;BME280;56314;48.088;11.642;2022-08-18T12:56:24;94862.44;;;29.13;39.76
26978;BME280;56314;48.088;11.642;2022-08-18T12:58:50;94856.88;;;29.19;39.95
26978;BME280;56314;48.088;11.642;2022-08-18T13:01:17;94859.63;;;28.85;39.88
26978;BME280;56314;48.088;11.642;2022-08-18T13:03:43;94859.34;;;28.70;40.18
26978;BME280;56314;48.088;11.642;2022-08-18T13:06:09;94843.56;;;28.45;40.43
26978;BME280;56314;48.088;11.642;2022-08-18T13:08:36;94840.69;;;28.34;41.04
26978;BME280;56314;48.088;11.642;2022-08-18T13:11:01;94829.78;;;28.46;41.84
26978;BME280;56314;48.088;11.642;2022-08-18T13:13:29;94812.94;;;28.56;41.51
26978;BME280;56314;48.088;11.642;2022-08-18T13:15:55;94810.41;;;28.49;41.60
26978;BME280;56314;48.088;11.642;2022-08-18T13:18:20;94794.31;;;28.37;43.20
26978;BME280;56314;48.088;11.642;2022-08-18T13:20:46;94800.34;;;28.45;42.52
26978;BME280;56314;48.088;11.642;2022-08-18T13:23:11;94802.91;;;28.34;43.10
26978;BME280;56314;48.088;11.642;2022-08-18T13:25:36;94795.28;;;28.31;43.33
26978;BME280;56314;48.088;11.642;2022-08-18T13:28:03;94795.69;;;28.23;43.93
26978;BME280;56314;48.088;11.642;2022-08-18T13:30:29;94798.03;;;28.02;44.43
26978;BME280;56314;48.088;11.642;2022-08-18T13:32:54;94805.00;;;27.86;44.50
26978;BME280;56314;48.088;11.642;2022-08-18T13:35:20;94818.22;;;27.71;44.99
26978;BME280;56314;48.088;11.642;2022-08-18T13:37:45;94817.97;;;27.72;45.32
26978;BME280;56314;48.088;11.642;2022-08-18T13:40:11;94813.31;;;27.56;44.63
26978;BME280;56314;48.088;11.642;2022-08-18T13:42:46;94822.38;;;27.38;45.38
26978;BME280;56314;48.088;11.642;2022-08-18T13:45:15;94824.75;;;27.46;45.16
26978;BME280;56314;48.088;11.642;2022-08-18T13:47:42;94818.84;;;27.49;45.23
26978;BME280;56314;48.088;11.642;2022-08-18T13:50:09;94817.72;;;27.45;44.76
26978;BME280;56314;48.088;11.642;2022-08-18T13:52:36;94821.69;;;27.42;45.26
26978;BME280;56314;48.088;11.642;2022-08-18T13:55:04;94806.78;;;27.40;44.82
26978;BME280;56314;48.088;11.642;2022-08-18T13:57:29;94801.44;;;27.28;44.82
26978;BME280;56314;48.088;11.642;2022-08-18T13:59:56;94784.28;;;27.34;45.03
26978;BME280;56314;48.088;11.642;2022-08-18T14:02:22;94764.72;;;27.39;45.86
26978;BME280;56314;48.088;11.642;2022-08-18T14:04:47;94755.78;;;27.50;44.53
26978;BME280;56314;48.088;11.642;2022-08-18T14:07:13;94755.72;;;27.45;44.00
26978;BME280;56314;48.088;11.642;2022-08-18T14:09:41;94738.56;;;27.51;43.97
26978;BME280;56314;48.088;11.642;2022-08-18T14:12:18;94736.44;;;27.53;44.61
26978;BME280;56314;48.088;11.642;2022-08-18T14:14:44;94727.03;;;27.56;44.04
26978;BME280;56314;48.088;11.642;2022-08-18T14:17:10;94725.69;;;27.41;44.34
26978;BME280;56314;48.088;11.642;2022-08-18T14:19:35;94723.03;;;27.29;45.35
26978;BME280;56314;48.088;11.642;2022-08-18T14:22:19;94716.25;;;27.27;45.51
26978;BME280;56314;48.088;11.642;2022-08-18T14:25:03;94714.31;;;27.10;45.83
26978;BME280;56314;48.088;11.642;2022-08-18T14:27:47;94712.00;;;27.02;47.19
26978;BME280;56314;48.088;11.642;2022-08-18T14:30:12;94714.09;;;27.00;46.94
26978;BME280;56314;48.088;11.642;2022-08-18T14:32:39;94718.19;;;27.02;46.82
26978;BME280;56314;48.088;11.642;2022-08-18T14:35:06;94718.09;;;26.85;47.06
26978;BME280;56314;48.088;11.642;2022-08-18T14:37:32;94716.59;;;26.89;47.58
26978;BME280;56314;48.088;11.642;2022-08-18T14:39:58;94717.06;;;26.86;47.49
26978;BME280;56314;48.088;11.642;2022-08-18T14:42:24;94709.44;;;26.83;47.53
26978;BME280;56314;48.088;11.642;2022-08-18T14:44:49;94715.66;;;26.84;47.36
26978;BME280;56314;48.088;11.642;2022-08-18T14:47:15;94705.22;;;26.87;47.25
26978;BME280;56314;48.088;11.642;2022-08-18T14:49:41;94707.22;;;26.92;47.56
26978;BME280;56314;48.088;11.642;2022-08-18T14:52:07;94701.78;;;27.04;47.00
26978;BME280;56314;48.088;11.642;2022-08-18T14:54:34;94697.00;;;27.06;47.18
26978;BME280;56314;48.088;11.642;2022-08-18T14:57:00;94700.25;;;27.08;47.20
26978;BME280;56314;48.088;11.642;2022-08-18T14:59:27;94696.03;;;27.12;47.33
26978;BME280;56314;48.088;11.642;2022-08-18T15:01:55;94696.75;;;27.08;47.02
26978;BME280;56314;48.088;11.642;2022-08-18T15:04:21;94688.94;;;26.94;47.73
26978;BME280;56314;48.088;11.642;2022-08-18T15:06:48;94689.75;;;26.95;47.84
26978;BME280;56314;48.088;11.642;2022-08-18T15:09:13;94689.19;;;26.93;47.65
26978;BME280;56314;48.088;11.642;2022-08-18T15:11:39;94692.22;;;26.84;48.57
26978;BME280;56314;48.088;11.642;2022-08-18T15:14:04;94695.88;;;26.78;48.43
26978;BME280;56314;48.088;11.642;2022-08-18T15:16:29;94701.84;;;26.68;48.05
26978;BME280;56314;48.088;11.642;2022-08-18T15:18:59;94707.69;;;26.65;48.54
26978;BME280;56314;48.088;11.642;2022-08-18T15:21:24;94700.56;;;26.59;49.42
26978;BME280;56314;48.088;11.642;2022-08-18T15:24:08;94709.44;;;26.59;49.04
26978;BME280;56314;48.088;11.642;2022-08-18T15:26:54;94712.97;;;26.60;48.67
26978;BME280;56314;48.088;11.642;2022-08-18T15:29:20;94714.75;;;26.54;49.41
26978;BME280;56314;48.088;11.642;2022-08-18T15:31:45;94722.47;;;26.51;49.36
26978;BME280;56314;48.088;11.642;2022-08-18T15:34:11;94721.06;;;26.48;49.65
26978;BME280;56314;48.088;11.642;2022-08-18T15:36:36;94718.94;;;26.50;50.01
26978;BME280;56314;48.088;11.642;2022-08-18T15:39:02;94719.06;;;26.55;50.22
26978;BME280;56314;48.088;11.642;2022-08-18T15:43:55;94698.34;;;26.56;50.02
26978;BME280;56314;48.088;11.642;2022-08-18T15:46:21;94695.66;;;26.56;49.33
26978;BME280;56314;48.088;11.642;2022-08-18T15:48:47;94700.22;;;26.55;49.34
26978;BME280;56314;48.088;11.642;2022-08-18T15:51:12;94695.56;;;26.51;49.24
26978;BME280;56314;48.088;11.642;2022-08-18T15:53:38;94694.72;;;26.50;49.10